sensor_id;sensor_type;location;lat;lon;timestamp;temperature;humidity
62464;SHT31;48512;48.552;9.380;2023-08-31T00:02:04;14.42;89.60
62464;SHT31;48512;48.552;9.380;2023-08-31T00:04:31;14.36;89.68
62464;SHT31;48512;48.552;9.380;2023-08-31T00:06:57;14.38;89.67
62464;SHT31;48512;48.552;9.380;2023-08-31T00:09:23;14.17;90.89
62464;SHT31;48512;48.552;9.380;2023-08-31T00:11:50;14.05;91.02
62464;SHT31;48512;48.552;9.380;2023-08-31T00:14:17;14.01;91.38
62464;SHT31;48512;48.552;9.380;2023-08-31T00:16:44;13.95;89.06
62464;SHT31;48512;48.552;9.380;2023-08-31T00:19:13;14.19;89.07
62464;SHT31;48512;48.552;9.380;2023-08-31T00:21:40;14.20;88.60
62464;SHT31;48512;48.552;9.380;2023-08-31T00:24:06;14.08;88.82
62464;SHT31;48512;48.552;9.380;2023-08-31T00:26:36;14.20;88.11
62464;SHT31;48512;48.552;9.380;2023-08-31T00:29:07;14.10;87.97
62464;SHT31;48512;48.552;9.380;2023-08-31T00:31:33;14.05;89.01
62464;SHT31;48512;48.552;9.380;2023-08-31T00:33:59;14.16;88.98
62464;SHT31;48512;48.552;9.380;2023-08-31T00:36:31;14.02;88.98
62464;SHT31;48512;48.552;9.380;2023-08-31T00:38:57;13.96;86.38
62464;SHT31;48512;48.552;9.380;2023-08-31T00:41:23;13.95;86.58
62464;SHT31;48512;48.552;9.380;2023-08-31T00:43:50;13.95;87.65
62464;SHT31;48512;48.552;9.380;2023-08-31T00:46:16;13.96;89.02
62464;SHT31;48512;48.552;9.380;2023-08-31T00:48:44;13.87;89.89
62464;SHT31;48512;48.552;9.380;2023-08-31T00:51:10;13.82;89.86
62464;SHT31;48512;48.552;9.380;2023-08-31T00:53:37;13.79;90.26
62464;SHT31;48512;48.552;9.380;2023-08-31T00:56:03;13.71;88.99
62464;SHT31;48512;48.552;9.380;2023-08-31T00:58:29;13.75;87.88
62464;SHT31;48512;48.552;9.380;2023-08-31T01:04:07;13.85;89.30
62464;SHT31;48512;48.552;9.380;2023-08-31T01:06:57;13.78;88.05
62464;SHT31;48512;48.552;9.380;2023-08-31T01:09:38;13.76;89.11
62464;SHT31;48512;48.552;9.380;2023-08-31T01:12:06;13.82;87.27
62464;SHT31;48512;48.552;9.380;2023-08-31T01:14:38;13.74;88.52
62464;SHT31;48512;48.552;9.380;2023-08-31T01:17:08;13.61;90.03
62464;SHT31;48512;48.552;9.380;2023-08-31T01:19:50;13.64;90.35
62464;SHT31;48512;48.552;9.380;2023-08-31T01:22:36;13.66;90.73
62464;SHT31;48512;48.552;9.380;2023-08-31T01:25:04;13.76;90.53
62464;SHT31;48512;48.552;9.380;2023-08-31T01:27:31;13.58;90.97
62464;SHT31;48512;48.552;9.380;2023-08-31T01:29:58;13.50;91.67
62464;SHT31;48512;48.552;9.380;2023-08-31T01:32:24;13.38;91.68
62464;SHT31;48512;48.552;9.380;2023-08-31T01:34:51;13.30;92.13
62464;SHT31;48512;48.552;9.380;2023-08-31T01:42:58;13.34;92.66
62464;SHT31;48512;48.552;9.380;2023-08-31T01:45:25;13.30;92.44
62464;SHT31;48512;48.552;9.380;2023-08-31T01:47:51;13.27;92.58
62464;SHT31;48512;48.552;9.380;2023-08-31T01:50:18;13.26;92.88
62464;SHT31;48512;48.552;9.380;2023-08-31T01:52:45;13.20;92.88
62464;SHT31;48512;48.552;9.380;2023-08-31T01:55:11;13.27;91.96
62464;SHT31;48512;48.552;9.380;2023-08-31T01:57:41;13.27;91.76
62464;SHT31;48512;48.552;9.380;2023-08-31T02:00:13;13.36;92.63
62464;SHT31;48512;48.552;9.380;2023-08-31T02:02:42;13.38;91.47
62464;SHT31;48512;48.552;9.380;2023-08-31T02:05:09;13.45;91.11
62464;SHT31;48512;48.552;9.380;2023-08-31T02:07:36;13.44;91.23
62464;SHT31;48512;48.552;9.380;2023-08-31T02:10:03;13.54;90.93
62464;SHT31;48512;48.552;9.380;2023-08-31T02:12:32;13.65;89.91
62464;SHT31;48512;48.552;9.380;2023-08-31T02:14:59;13.62;89.73
62464;SHT31;48512;48.552;9.380;2023-08-31T02:17:26;13.76;89.58
62464;SHT31;48512;48.552;9.380;2023-08-31T02:19:53;13.71;89.76
62464;SHT31;48512;48.552;9.380;2023-08-31T02:22:19;13.55;90.64
62464;SHT31;48512;48.552;9.380;2023-08-31T02:24:47;13.71;89.86
62464;SHT31;48512;48.552;9.380;2023-08-31T02:27:13;13.62;90.23
62464;SHT31;48512;48.552;9.380;2023-08-31T02:29:39;13.68;89.73
62464;SHT31;48512;48.552;9.380;2023-08-31T02:32:06;13.82;89.52
62464;SHT31;48512;48.552;9.380;2023-08-31T02:34:33;13.62;90.01
62464;SHT31;48512;48.552;9.380;2023-08-31T02:36:59;13.69;89.99
62464;SHT31;48512;48.552;9.380;2023-08-31T02:39:27;13.62;89.59
62464;SHT31;48512;48.552;9.380;2023-08-31T02:41:53;13.86;89.13
62464;SHT31;48512;48.552;9.380;2023-08-31T02:44:20;13.66;90.22
62464;SHT31;48512;48.552;9.380;2023-08-31T02:46:46;13.62;90.21
62464;SHT31;48512;48.552;9.380;2023-08-31T02:49:12;13.69;89.99
62464;SHT31;48512;48.552;9.380;2023-08-31T02:51:41;13.68;90.00
62464;SHT31;48512;48.552;9.380;2023-08-31T02:54:07;13.65;89.36
62464;SHT31;48512;48.552;9.380;2023-08-31T02:56:33;13.93;88.05
62464;SHT31;48512;48.552;9.380;2023-08-31T02:58:59;13.81;88.66
62464;SHT31;48512;48.552;9.380;2023-08-31T03:01:26;13.68;89.26
62464;SHT31;48512;48.552;9.380;2023-08-31T03:03:52;13.53;89.38
62464;SHT31;48512;48.552;9.380;2023-08-31T03:06:20;13.59;89.77
62464;SHT31;48512;48.552;9.380;2023-08-31T03:08:46;13.62;89.29
62464;SHT31;48512;48.552;9.380;2023-08-31T03:11:13;13.79;89.29
62464;SHT31;48512;48.552;9.380;2023-08-31T03:13:42;13.66;88.72
62464;SHT31;48512;48.552;9.380;2023-08-31T03:16:08;13.65;87.71
62464;SHT31;48512;48.552;9.380;2023-08-31T03:18:34;13.65;87.87
62464;SHT31;48512;48.552;9.380;2023-08-31T03:21:01;13.54;88.73
62464;SHT31;48512;48.552;9.380;2023-08-31T03:23:29;13.71;87.69
62464;SHT31;48512;48.552;9.380;2023-08-31T03:25:56;13.79;88.00
62464;SHT31;48512;48.552;9.380;2023-08-31T03:28:26;13.59;88.14
62464;SHT31;48512;48.552;9.380;2023-08-31T03:30:56;13.45;88.60
62464;SHT31;48512;48.552;9.380;2023-08-31T03:33:22;13.37;89.32
62464;SHT31;48512;48.552;9.380;2023-08-31T03:35:49;13.38;90.30
62464;SHT31;48512;48.552;9.380;2023-08-31T03:38:15;13.54;89.60
62464;SHT31;48512;48.552;9.380;2023-08-31T03:40:41;13.43;89.80
62464;SHT31;48512;48.552;9.380;2023-08-31T03:43:07;13.51;89.88
62464;SHT31;48512;48.552;9.380;2023-08-31T03:45:33;13.40;89.27
62464;SHT31;48512;48.552;9.380;2023-08-31T03:47:59;13.37;89.34
62464;SHT31;48512;48.552;9.380;2023-08-31T03:50:26;13.57;88.27
62464;SHT31;48512;48.552;9.380;2023-08-31T03:52:52;13.47;88.65
62464;SHT31;48512;48.552;9.380;2023-08-31T03:55:18;13.41;88.84
62464;SHT31;48512;48.552;9.380;2023-08-31T03:57:44;13.58;88.90
62464;SHT31;48512;48.552;9.380;2023-08-31T04:00:18;13.51;89.00
62464;SHT31;48512;48.552;9.380;2023-08-31T04:02:44;13.54;88.69
62464;SHT31;48512;48.552;9.380;2023-08-31T04:05:12;13.33;89.05
62464;SHT31;48512;48.552;9.380;2023-08-31T04:07:43;13.31;89.99
62464;SHT31;48512;48.552;9.380;2023-08-31T04:10:09;13.24;90.05
62464;SHT31;48512;48.552;9.380;2023-08-31T04:12:35;13.23;90.00
62464;SHT31;48512;48.552;9.380;2023-08-31T04:15:01;13.27;89.87
62464;SHT31;48512;48.552;9.380;2023-08-31T04:17:30;13.23;90.74
62464;SHT31;48512;48.552;9.380;2023-08-31T04:19:56;13.23;90.13
62464;SHT31;48512;48.552;9.380;2023-08-31T04:22:22;13.31;89.80
62464;SHT31;48512;48.552;9.380;2023-08-31T04:24:48;13.28;89.46
62464;SHT31;48512;48.552;9.380;2023-08-31T04:27:14;13.23;89.33
62464;SHT31;48512;48.552;9.380;2023-08-31T04:29:40;13.36;88.27
62464;SHT31;48512;48.552;9.380;2023-08-31T04:32:06;13.18;89.58
62464;SHT31;48512;48.552;9.380;2023-08-31T04:34:32;13.34;88.57
62464;SHT31;48512;48.552;9.380;2023-08-31T04:36:58;13.41;87.51
62464;SHT31;48512;48.552;9.380;2023-08-31T04:39:24;13.48;87.36
62464;SHT31;48512;48.552;9.380;2023-08-31T04:41:51;13.36;88.74
62464;SHT31;48512;48.552;9.380;2023-08-31T04:44:17;13.33;88.18
62464;SHT31;48512;48.552;9.380;2023-08-31T04:46:43;13.30;88.00
62464;SHT31;48512;48.552;9.380;2023-08-31T04:49:09;13.54;87.14
62464;SHT31;48512;48.552;9.380;2023-08-31T04:51:36;13.38;87.91
62464;SHT31;48512;48.552;9.380;2023-08-31T04:54:05;13.31;88.51
62464;SHT31;48512;48.552;9.380;2023-08-31T04:56:32;13.36;87.46
62464;SHT31;48512;48.552;9.380;2023-08-31T04:58:59;13.54;87.80
62464;SHT31;48512;48.552;9.380;2023-08-31T05:01:26;13.43;88.29
62464;SHT31;48512;48.552;9.380;2023-08-31T05:03:52;13.27;89.33
62464;SHT31;48512;48.552;9.380;2023-08-31T05:06:18;13.17;90.01
62464;SHT31;48512;48.552;9.380;2023-08-31T05:08:44;13.10;90.13
62464;SHT31;48512;48.552;9.380;2023-08-31T05:11:10;13.21;90.02
62464;SHT31;48512;48.552;9.380;2023-08-31T05:13:36;13.20;90.30
62464;SHT31;48512;48.552;9.380;2023-08-31T05:16:03;13.33;90.17
62464;SHT31;48512;48.552;9.380;2023-08-31T05:18:29;13.13;90.50
62464;SHT31;48512;48.552;9.380;2023-08-31T05:20:55;12.99;90.99
62464;SHT31;48512;48.552;9.380;2023-08-31T05:23:22;12.88;91.41
62464;SHT31;48512;48.552;9.380;2023-08-31T05:25:48;12.89;91.49
62464;SHT31;48512;48.552;9.380;2023-08-31T05:28:14;12.86;91.44
62464;SHT31;48512;48.552;9.380;2023-08-31T05:30:50;12.80;91.91
62464;SHT31;48512;48.552;9.380;2023-08-31T05:33:20;12.78;91.69
62464;SHT31;48512;48.552;9.380;2023-08-31T05:35:48;12.70;91.96
62464;SHT31;48512;48.552;9.380;2023-08-31T05:38:14;12.76;92.16
62464;SHT31;48512;48.552;9.380;2023-08-31T05:40:40;12.76;91.92
62464;SHT31;48512;48.552;9.380;2023-08-31T05:43:15;12.82;92.17
62464;SHT31;48512;48.552;9.380;2023-08-31T05:45:42;13.06;91.37
62464;SHT31;48512;48.552;9.380;2023-08-31T05:48:08;12.96;91.40
62464;SHT31;48512;48.552;9.380;2023-08-31T05:50:34;12.96;91.65
62464;SHT31;48512;48.552;9.380;2023-08-31T05:53:03;12.92;91.73
62464;SHT31;48512;48.552;9.380;2023-08-31T05:55:30;13.06;91.40
62464;SHT31;48512;48.552;9.380;2023-08-31T05:57:56;13.16;90.44
62464;SHT31;48512;48.552;9.380;2023-08-31T06:00:22;13.14;90.64
62464;SHT31;48512;48.552;9.380;2023-08-31T06:02:48;13.17;91.22
62464;SHT31;48512;48.552;9.380;2023-08-31T06:05:14;13.47;88.39
62464;SHT31;48512;48.552;9.380;2023-08-31T06:07:43;13.51;89.08
62464;SHT31;48512;48.552;9.380;2023-08-31T06:10:09;13.43;91.12
62464;SHT31;48512;48.552;9.380;2023-08-31T06:12:35;13.58;89.61
62464;SHT31;48512;48.552;9.380;2023-08-31T06:15:02;13.72;87.96
62464;SHT31;48512;48.552;9.380;2023-08-31T06:17:29;13.83;87.13
62464;SHT31;48512;48.552;9.380;2023-08-31T06:19:55;13.89;87.56
62464;SHT31;48512;48.552;9.380;2023-08-31T06:22:22;13.83;86.70
62464;SHT31;48512;48.552;9.380;2023-08-31T06:24:50;13.96;86.19
62464;SHT31;48512;48.552;9.380;2023-08-31T06:27:18;13.99;87.11
62464;SHT31;48512;48.552;9.380;2023-08-31T06:29:44;14.06;86.09
62464;SHT31;48512;48.552;9.380;2023-08-31T06:32:10;14.05;86.59
62464;SHT31;48512;48.552;9.380;2023-08-31T06:34:36;14.16;85.74
62464;SHT31;48512;48.552;9.380;2023-08-31T06:37:02;14.31;85.78
62464;SHT31;48512;48.552;9.380;2023-08-31T06:39:29;14.36;85.29
62464;SHT31;48512;48.552;9.380;2023-08-31T06:41:55;14.24;86.05
62464;SHT31;48512;48.552;9.380;2023-08-31T06:44:30;14.38;85.46
62464;SHT31;48512;48.552;9.380;2023-08-31T06:46:56;14.27;85.85
62464;SHT31;48512;48.552;9.380;2023-08-31T06:49:23;14.47;85.27
62464;SHT31;48512;48.552;9.380;2023-08-31T06:51:49;14.33;85.78
62464;SHT31;48512;48.552;9.380;2023-08-31T06:54:16;14.48;85.56
62464;SHT31;48512;48.552;9.380;2023-08-31T06:56:42;14.79;84.12
62464;SHT31;48512;48.552;9.380;2023-08-31T06:59:08;14.71;84.54
62464;SHT31;48512;48.552;9.380;2023-08-31T07:01:34;14.89;84.08
62464;SHT31;48512;48.552;9.380;2023-08-31T07:04:00;14.75;84.27
62464;SHT31;48512;48.552;9.380;2023-08-31T07:06:27;14.63;85.36
62464;SHT31;48512;48.552;9.380;2023-08-31T07:09:02;14.79;84.37
62464;SHT31;48512;48.552;9.380;2023-08-31T07:11:31;14.78;84.34
62464;SHT31;48512;48.552;9.380;2023-08-31T07:13:57;14.78;83.80
62464;SHT31;48512;48.552;9.380;2023-08-31T07:16:23;14.93;84.08
62464;SHT31;48512;48.552;9.380;2023-08-31T07:18:49;14.82;84.17
62464;SHT31;48512;48.552;9.380;2023-08-31T07:21:15;14.95;84.27
62464;SHT31;48512;48.552;9.380;2023-08-31T07:23:41;15.06;83.97
62464;SHT31;48512;48.552;9.380;2023-08-31T07:26:08;15.77;85.87
62464;SHT31;48512;48.552;9.380;2023-08-31T07:28:34;16.05;84.02
62464;SHT31;48512;48.552;9.380;2023-08-31T07:31:02;15.74;81.37
62464;SHT31;48512;48.552;9.380;2023-08-31T07:33:30;15.57;81.63
62464;SHT31;48512;48.552;9.380;2023-08-31T07:35:58;15.42;82.25
62464;SHT31;48512;48.552;9.380;2023-08-31T07:38:25;15.46;81.88
62464;SHT31;48512;48.552;9.380;2023-08-31T07:40:52;15.78;80.74
62464;SHT31;48512;48.552;9.380;2023-08-31T07:43:19;15.94;80.15
62464;SHT31;48512;48.552;9.380;2023-08-31T07:45:45;15.78;80.63
62464;SHT31;48512;48.552;9.380;2023-08-31T07:48:11;15.90;79.18
62464;SHT31;48512;48.552;9.380;2023-08-31T07:50:37;15.75;79.06
62464;SHT31;48512;48.552;9.380;2023-08-31T07:53:05;15.60;78.45
62464;SHT31;48512;48.552;9.380;2023-08-31T07:55:32;15.70;79.01
62464;SHT31;48512;48.552;9.380;2023-08-31T07:57:58;15.87;79.01
62464;SHT31;48512;48.552;9.380;2023-08-31T08:00:24;15.97;78.61
62464;SHT31;48512;48.552;9.380;2023-08-31T08:02:50;16.18;76.14
62464;SHT31;48512;48.552;9.380;2023-08-31T08:05:16;16.59;78.80
62464;SHT31;48512;48.552;9.380;2023-08-31T08:07:42;16.92;75.96
62464;SHT31;48512;48.552;9.380;2023-08-31T08:10:09;17.07;74.41
62464;SHT31;48512;48.552;9.380;2023-08-31T08:12:42;17.31;74.04
62464;SHT31;48512;48.552;9.380;2023-08-31T08:15:12;17.39;71.34
62464;SHT31;48512;48.552;9.380;2023-08-31T08:17:39;17.10;71.40
62464;SHT31;48512;48.552;9.380;2023-08-31T08:20:06;17.22;72.91
62464;SHT31;48512;48.552;9.380;2023-08-31T08:22:32;17.47;71.35
62464;SHT31;48512;48.552;9.380;2023-08-31T08:25:01;17.59;71.63
62464;SHT31;48512;48.552;9.380;2023-08-31T08:27:29;17.97;71.67
62464;SHT31;48512;48.552;9.380;2023-08-31T08:29:57;17.91;68.33
62464;SHT31;48512;48.552;9.380;2023-08-31T08:32:23;17.94;68.08
62464;SHT31;48512;48.552;9.380;2023-08-31T08:34:50;18.12;68.99
62464;SHT31;48512;48.552;9.380;2023-08-31T08:37:16;18.37;67.58
62464;SHT31;48512;48.552;9.380;2023-08-31T08:39:43;18.21;67.34
62464;SHT31;48512;48.552;9.380;2023-08-31T08:42:10;18.20;67.45
62464;SHT31;48512;48.552;9.380;2023-08-31T08:44:36;18.05;66.28
62464;SHT31;48512;48.552;9.380;2023-08-31T08:47:03;17.76;66.45
62464;SHT31;48512;48.552;9.380;2023-08-31T08:49:33;17.81;66.68
62464;SHT31;48512;48.552;9.380;2023-08-31T08:52:01;18.02;67.60
62464;SHT31;48512;48.552;9.380;2023-08-31T08:54:28;18.17;67.24
62464;SHT31;48512;48.552;9.380;2023-08-31T08:56:54;18.38;63.55
62464;SHT31;48512;48.552;9.380;2023-08-31T08:59:21;18.22;60.58
62464;SHT31;48512;48.552;9.380;2023-08-31T09:01:48;18.41;60.59
62464;SHT31;48512;48.552;9.380;2023-08-31T09:04:14;18.28;60.96
62464;SHT31;48512;48.552;9.380;2023-08-31T09:06:40;18.44;63.33
62464;SHT31;48512;48.552;9.380;2023-08-31T09:09:10;18.55;62.26
62464;SHT31;48512;48.552;9.380;2023-08-31T09:11:36;19.00;57.11
62464;SHT31;48512;48.552;9.380;2023-08-31T09:14:15;18.62;57.06
62464;SHT31;48512;48.552;9.380;2023-08-31T09:16:45;18.59;57.13
62464;SHT31;48512;48.552;9.380;2023-08-31T09:19:22;19.11;56.45
62464;SHT31;48512;48.552;9.380;2023-08-31T09:21:50;19.04;56.42
62464;SHT31;48512;48.552;9.380;2023-08-31T09:24:16;19.06;56.54
62464;SHT31;48512;48.552;9.380;2023-08-31T09:26:57;19.21;56.54
62464;SHT31;48512;48.552;9.380;2023-08-31T09:29:24;19.44;55.87
62464;SHT31;48512;48.552;9.380;2023-08-31T09:31:50;19.31;54.90
62464;SHT31;48512;48.552;9.380;2023-08-31T09:34:17;19.47;55.32
62464;SHT31;48512;48.552;9.380;2023-08-31T09:36:44;19.52;55.62
62464;SHT31;48512;48.552;9.380;2023-08-31T09:39:12;19.04;53.77
62464;SHT31;48512;48.552;9.380;2023-08-31T09:42:05;18.86;55.56
62464;SHT31;48512;48.552;9.380;2023-08-31T09:44:32;18.77;56.77
62464;SHT31;48512;48.552;9.380;2023-08-31T09:46:58;18.69;55.92
62464;SHT31;48512;48.552;9.380;2023-08-31T09:49:25;18.90;57.30
62464;SHT31;48512;48.552;9.380;2023-08-31T09:51:52;18.89;57.12
62464;SHT31;48512;48.552;9.380;2023-08-31T09:54:21;19.17;56.85
62464;SHT31;48512;48.552;9.380;2023-08-31T09:56:55;19.17;57.01
62464;SHT31;48512;48.552;9.380;2023-08-31T09:59:22;19.28;56.10
62464;SHT31;48512;48.552;9.380;2023-08-31T10:01:49;19.71;56.42
62464;SHT31;48512;48.552;9.380;2023-08-31T10:04:15;19.83;53.60
62464;SHT31;48512;48.552;9.380;2023-08-31T10:06:42;19.48;54.80
62464;SHT31;48512;48.552;9.380;2023-08-31T10:09:09;19.11;54.91
62464;SHT31;48512;48.552;9.380;2023-08-31T10:11:36;19.20;56.23
62464;SHT31;48512;48.552;9.380;2023-08-31T10:14:04;19.51;55.44
62464;SHT31;48512;48.552;9.380;2023-08-31T10:16:30;19.62;54.13
62464;SHT31;48512;48.552;9.380;2023-08-31T10:18:57;19.63;55.22
62464;SHT31;48512;48.552;9.380;2023-08-31T10:21:23;19.57;56.81
62464;SHT31;48512;48.552;9.380;2023-08-31T10:23:50;19.75;55.74
62464;SHT31;48512;48.552;9.380;2023-08-31T10:26:43;19.82;55.04
62464;SHT31;48512;48.552;9.380;2023-08-31T10:29:25;19.80;54.42
62464;SHT31;48512;48.552;9.380;2023-08-31T10:31:53;19.90;53.69
62464;SHT31;48512;48.552;9.380;2023-08-31T10:34:34;20.57;52.79
62464;SHT31;48512;48.552;9.380;2023-08-31T10:37:19;20.92;49.27
62464;SHT31;48512;48.552;9.380;2023-08-31T10:39:46;21.22;51.36
62464;SHT31;48512;48.552;9.380;2023-08-31T10:42:12;21.16;50.30
62464;SHT31;48512;48.552;9.380;2023-08-31T10:44:41;20.98;51.05
62464;SHT31;48512;48.552;9.380;2023-08-31T10:47:09;21.00;50.14
62464;SHT31;48512;48.552;9.380;2023-08-31T10:49:35;21.18;47.47
62464;SHT31;48512;48.552;9.380;2023-08-31T10:52:19;20.71;48.83
62464;SHT31;48512;48.552;9.380;2023-08-31T10:54:46;20.43;50.31
62464;SHT31;48512;48.552;9.380;2023-08-31T10:57:13;20.40;50.15
62464;SHT31;48512;48.552;9.380;2023-08-31T11:02:41;21.79;51.10
62464;SHT31;48512;48.552;9.380;2023-08-31T11:05:17;21.78;48.68
62464;SHT31;48512;48.552;9.380;2023-08-31T11:07:47;21.10;47.94
62464;SHT31;48512;48.552;9.380;2023-08-31T11:10:19;21.14;49.07
62464;SHT31;48512;48.552;9.380;2023-08-31T11:12:49;21.60;49.17
62464;SHT31;48512;48.552;9.380;2023-08-31T11:15:15;22.28;49.34
62464;SHT31;48512;48.552;9.380;2023-08-31T11:17:42;22.88;47.48
62464;SHT31;48512;48.552;9.380;2023-08-31T11:20:12;23.12;45.97
62464;SHT31;48512;48.552;9.380;2023-08-31T11:22:40;22.64;46.58
62464;SHT31;48512;48.552;9.380;2023-08-31T11:25:08;22.84;45.33
62464;SHT31;48512;48.552;9.380;2023-08-31T11:27:35;23.14;45.55
62464;SHT31;48512;48.552;9.380;2023-08-31T11:30:01;23.67;43.13
62464;SHT31;48512;48.552;9.380;2023-08-31T11:32:27;23.74;44.95
62464;SHT31;48512;48.552;9.380;2023-08-31T11:34:53;23.93;44.91
62464;SHT31;48512;48.552;9.380;2023-08-31T11:37:19;24.18;44.03
62464;SHT31;48512;48.552;9.380;2023-08-31T11:39:53;24.69;42.31
62464;SHT31;48512;48.552;9.380;2023-08-31T11:42:21;24.97;43.95
62464;SHT31;48512;48.552;9.380;2023-08-31T11:44:49;24.44;43.65
62464;SHT31;48512;48.552;9.380;2023-08-31T11:47:16;24.99;42.23
62464;SHT31;48512;48.552;9.380;2023-08-31T11:49:43;25.10;43.32
62464;SHT31;48512;48.552;9.380;2023-08-31T11:52:11;25.23;41.20
62464;SHT31;48512;48.552;9.380;2023-08-31T11:54:41;25.62;41.17
62464;SHT31;48512;48.552;9.380;2023-08-31T11:57:08;25.27;40.95
62464;SHT31;48512;48.552;9.380;2023-08-31T11:59:36;25.31;40.20
62464;SHT31;48512;48.552;9.380;2023-08-31T12:02:06;25.41;41.07
62464;SHT31;48512;48.552;9.380;2023-08-31T12:04:41;25.57;40.19
62464;SHT31;48512;48.552;9.380;2023-08-31T12:07:09;25.49;40.47
62464;SHT31;48512;48.552;9.380;2023-08-31T12:09:35;25.78;40.17
62464;SHT31;48512;48.552;9.380;2023-08-31T12:12:02;25.42;40.00
62464;SHT31;48512;48.552;9.380;2023-08-31T12:14:30;25.58;39.69
62464;SHT31;48512;48.552;9.380;2023-08-31T12:17:02;25.30;40.66
62464;SHT31;48512;48.552;9.380;2023-08-31T12:19:32;25.31;39.93
62464;SHT31;48512;48.552;9.380;2023-08-31T12:21:59;25.61;40.10
62464;SHT31;48512;48.552;9.380;2023-08-31T12:24:25;25.28;42.01
62464;SHT31;48512;48.552;9.380;2023-08-31T12:26:51;25.81;40.64
62464;SHT31;48512;48.552;9.380;2023-08-31T12:29:21;25.81;40.50
62464;SHT31;48512;48.552;9.380;2023-08-31T12:31:48;25.90;39.94
62464;SHT31;48512;48.552;9.380;2023-08-31T12:34:15;26.60;38.82
62464;SHT31;48512;48.552;9.380;2023-08-31T12:36:41;26.10;39.55
62464;SHT31;48512;48.552;9.380;2023-08-31T12:39:08;26.03;39.57
62464;SHT31;48512;48.552;9.380;2023-08-31T12:41:36;27.19;37.92
62464;SHT31;48512;48.552;9.380;2023-08-31T12:44:03;25.51;41.11
62464;SHT31;48512;48.552;9.380;2023-08-31T12:46:30;25.93;41.16
62464;SHT31;48512;48.552;9.380;2023-08-31T12:48:56;26.64;38.61
62464;SHT31;48512;48.552;9.380;2023-08-31T12:51:23;25.66;40.20
62464;SHT31;48512;48.552;9.380;2023-08-31T12:53:49;25.10;41.27
62464;SHT31;48512;48.552;9.380;2023-08-31T12:56:15;24.93;41.95
62464;SHT31;48512;48.552;9.380;2023-08-31T12:58:51;24.47;42.60
62464;SHT31;48512;48.552;9.380;2023-08-31T13:01:19;24.44;41.84
62464;SHT31;48512;48.552;9.380;2023-08-31T13:03:46;25.21;41.74
62464;SHT31;48512;48.552;9.380;2023-08-31T13:06:13;24.84;41.71
62464;SHT31;48512;48.552;9.380;2023-08-31T13:08:40;24.75;42.08
62464;SHT31;48512;48.552;9.380;2023-08-31T13:11:06;24.94;41.37
62464;SHT31;48512;48.552;9.380;2023-08-31T13:13:32;24.55;41.74
62464;SHT31;48512;48.552;9.380;2023-08-31T13:15:59;24.49;42.19
62464;SHT31;48512;48.552;9.380;2023-08-31T13:18:25;24.36;43.37
62464;SHT31;48512;48.552;9.380;2023-08-31T13:20:54;24.72;42.04
62464;SHT31;48512;48.552;9.380;2023-08-31T13:23:23;25.16;40.98
62464;SHT31;48512;48.552;9.380;2023-08-31T13:25:49;25.95;40.58
62464;SHT31;48512;48.552;9.380;2023-08-31T13:28:19;25.69;41.86
62464;SHT31;48512;48.552;9.380;2023-08-31T13:30:45;25.38;41.60
62464;SHT31;48512;48.552;9.380;2023-08-31T13:33:12;25.24;42.35
62464;SHT31;48512;48.552;9.380;2023-08-31T13:35:38;25.26;41.07
62464;SHT31;48512;48.552;9.380;2023-08-31T13:38:04;24.90;42.73
62464;SHT31;48512;48.552;9.380;2023-08-31T13:40:30;25.03;41.77
62464;SHT31;48512;48.552;9.380;2023-08-31T13:42:58;24.73;42.33
62464;SHT31;48512;48.552;9.380;2023-08-31T13:45:32;23.96;43.84
62464;SHT31;48512;48.552;9.380;2023-08-31T13:47:59;24.15;44.18
62464;SHT31;48512;48.552;9.380;2023-08-31T13:50:26;24.05;45.07
62464;SHT31;48512;48.552;9.380;2023-08-31T13:52:53;24.14;44.08
62464;SHT31;48512;48.552;9.380;2023-08-31T13:55:19;24.21;44.20
62464;SHT31;48512;48.552;9.380;2023-08-31T13:57:46;24.42;42.97
62464;SHT31;48512;48.552;9.380;2023-08-31T14:00:12;24.48;44.40
62464;SHT31;48512;48.552;9.380;2023-08-31T14:02:39;24.36;43.78
62464;SHT31;48512;48.552;9.380;2023-08-31T14:05:06;24.39;42.82
62464;SHT31;48512;48.552;9.380;2023-08-31T14:07:32;24.31;43.00
62464;SHT31;48512;48.552;9.380;2023-08-31T14:09:59;24.26;42.44
62464;SHT31;48512;48.552;9.380;2023-08-31T14:12:25;23.80;42.85
62464;SHT31;48512;48.552;9.380;2023-08-31T14:14:54;23.74;43.40
62464;SHT31;48512;48.552;9.380;2023-08-31T14:17:21;24.03;43.95
62464;SHT31;48512;48.552;9.380;2023-08-31T14:19:47;24.20;43.86
62464;SHT31;48512;48.552;9.380;2023-08-31T14:22:13;24.65;43.33
62464;SHT31;48512;48.552;9.380;2023-08-31T14:24:39;24.59;43.41
62464;SHT31;48512;48.552;9.380;2023-08-31T14:27:05;24.72;42.05
62464;SHT31;48512;48.552;9.380;2023-08-31T14:29:32;23.42;43.85
62464;SHT31;48512;48.552;9.380;2023-08-31T14:31:58;22.97;45.46
62464;SHT31;48512;48.552;9.380;2023-08-31T14:34:24;22.86;45.38
62464;SHT31;48512;48.552;9.380;2023-08-31T14:36:51;22.74;47.25
62464;SHT31;48512;48.552;9.380;2023-08-31T14:39:18;23.18;47.47
62464;SHT31;48512;48.552;9.380;2023-08-31T14:41:44;23.73;46.86
62464;SHT31;48512;48.552;9.380;2023-08-31T14:44:10;23.76;45.02
62464;SHT31;48512;48.552;9.380;2023-08-31T14:46:36;23.52;45.15
62464;SHT31;48512;48.552;9.380;2023-08-31T14:49:02;23.84;45.11
62464;SHT31;48512;48.552;9.380;2023-08-31T14:51:30;24.14;44.77
62464;SHT31;48512;48.552;9.380;2023-08-31T14:53:56;24.55;44.14
62464;SHT31;48512;48.552;9.380;2023-08-31T14:56:22;24.72;44.47
62464;SHT31;48512;48.552;9.380;2023-08-31T14:58:48;24.91;43.38
62464;SHT31;48512;48.552;9.380;2023-08-31T15:01:14;23.86;44.94
62464;SHT31;48512;48.552;9.380;2023-08-31T15:03:40;24.28;44.62
62464;SHT31;48512;48.552;9.380;2023-08-31T15:06:07;23.93;44.36
62464;SHT31;48512;48.552;9.380;2023-08-31T15:08:38;23.86;45.23
62464;SHT31;48512;48.552;9.380;2023-08-31T15:11:04;23.98;43.85
62464;SHT31;48512;48.552;9.380;2023-08-31T15:13:30;23.53;45.19
62464;SHT31;48512;48.552;9.380;2023-08-31T15:15:57;23.42;45.08
62464;SHT31;48512;48.552;9.380;2023-08-31T15:18:27;23.35;44.66
62464;SHT31;48512;48.552;9.380;2023-08-31T15:20:54;23.01;46.49
62464;SHT31;48512;48.552;9.380;2023-08-31T15:23:21;23.05;47.15
62464;SHT31;48512;48.552;9.380;2023-08-31T15:25:48;22.91;47.61
62464;SHT31;48512;48.552;9.380;2023-08-31T15:28:14;22.77;47.39
62464;SHT31;48512;48.552;9.380;2023-08-31T15:30:40;22.71;47.66
62464;SHT31;48512;48.552;9.380;2023-08-31T15:33:06;22.74;48.47
62464;SHT31;48512;48.552;9.380;2023-08-31T15:35:33;22.73;48.07
62464;SHT31;48512;48.552;9.380;2023-08-31T15:37:59;22.40;48.33
62464;SHT31;48512;48.552;9.380;2023-08-31T15:40:26;22.28;49.20
62464;SHT31;48512;48.552;9.380;2023-08-31T15:42:52;22.23;49.40
62464;SHT31;48512;48.552;9.380;2023-08-31T15:45:18;22.10;50.28